createdAt,value
2022-12-28T00:01:09.322Z,4.64
2022-12-28T00:04:15.195Z,4.55
2022-12-28T00:07:19.035Z,4.38
2022-12-28T00:11:07.270Z,4.12
2022-12-28T00:13:44.167Z,3.78
2022-12-28T00:16:46.825Z,3.66
2022-12-28T00:19:49.384Z,3.54
2022-12-28T00:22:53.317Z,3.50
2022-12-28T00:25:55.781Z,3.45
2022-12-28T00:29:04.305Z,3.50
2022-12-28T00:32:08.116Z,3.57
2022-12-28T00:35:10.659Z,3.57
2022-12-28T00:38:14.664Z,3.60
2022-12-28T00:41:17.247Z,3.84
2022-12-28T00:44:19.927Z,3.87
2022-12-28T00:47:22.507Z,3.83
2022-12-28T00:50:25.016Z,3.94
2022-12-28T00:53:28.924Z,4.17
2022-12-28T00:56:31.337Z,4.22
2022-12-28T00:59:33.819Z,4.45
2022-12-28T01:02:36.346Z,4.43
2022-12-28T01:05:39.719Z,4.22
2022-12-28T01:08:44.125Z,4.33
2022-12-28T01:11:46.671Z,4.44
2022-12-28T01:14:49.251Z,4.55
2022-12-28T01:17:51.847Z,4.60
2022-12-28T01:20:54.500Z,4.35
2022-12-28T01:24:00.493Z,4.25
2022-12-28T01:27:03.079Z,4.28
2022-12-28T01:30:06.599Z,4.56
2022-12-28T01:33:09.262Z,4.90
2022-12-28T01:36:15.115Z,4.82
2022-12-28T01:39:19.026Z,4.71
2022-12-28T01:42:21.441Z,4.70
2022-12-28T01:45:24.185Z,4.99
2022-12-28T01:48:26.774Z,5.10
2022-12-28T01:51:31.605Z,5.28
2022-12-28T01:54:39.799Z,4.87
2022-12-28T01:57:46.367Z,4.71
2022-12-28T02:00:50.385Z,4.50
2022-12-28T02:03:52.936Z,4.39
2022-12-28T02:06:55.830Z,4.37
2022-12-28T02:10:42.646Z,4.58
2022-12-28T02:13:23.408Z,4.86
2022-12-28T02:16:26.072Z,5.09
2022-12-28T02:19:35.274Z,5.31
2022-12-28T02:23:15.782Z,5.54
2022-12-28T02:26:39.713Z,5.50
2022-12-28T02:30:02.762Z,5.81
2022-12-28T02:33:10.291Z,5.84
2022-12-28T02:36:18.990Z,6.03
2022-12-28T02:39:24.408Z,6.11
2022-12-28T02:42:27.709Z,6.18
2022-12-28T02:45:57.614Z,6.28
2022-12-28T02:49:29.183Z,6.21
2022-12-28T02:52:42.700Z,6.39
2022-12-28T02:56:08.945Z,6.47
2022-12-28T02:59:28.584Z,6.56
2022-12-28T03:02:44.919Z,6.60
2022-12-28T03:06:15.976Z,6.68
2022-12-28T03:09:29.326Z,6.61
2022-12-28T03:12:34.133Z,6.74
2022-12-28T03:15:38.992Z,6.76
2022-12-28T03:19:02.349Z,6.83
2022-12-28T03:22:22.743Z,6.68
2022-12-28T03:25:45.678Z,6.77
2022-12-28T03:29:06.503Z,6.80
2022-12-28T03:32:09.979Z,6.89
2022-12-28T03:35:14.018Z,6.83
2022-12-28T03:38:27.326Z,6.83
2022-12-28T03:41:32.372Z,6.81
2022-12-28T03:44:35.164Z,6.65
2022-12-28T03:47:38.910Z,6.27
2022-12-28T03:50:43.533Z,5.86
2022-12-28T03:53:47.660Z,5.60
2022-12-28T03:56:51.370Z,5.53
2022-12-28T03:59:53.759Z,5.31
2022-12-28T04:02:56.501Z,5.37
2022-12-28T04:06:00.881Z,5.43
2022-12-28T04:09:03.588Z,5.68
2022-12-28T04:12:06.971Z,5.87
2022-12-28T04:15:09.963Z,5.82
2022-12-28T04:18:12.599Z,5.55
2022-12-28T04:21:16.540Z,5.50
2022-12-28T04:24:19.197Z,5.51
2022-12-28T04:27:24.100Z,5.84
2022-12-28T04:30:26.615Z,5.91
2022-12-28T04:33:29.456Z,6.23
2022-12-28T04:36:33.744Z,6.51
2022-12-28T04:39:55.342Z,6.68
2022-12-28T04:42:58.956Z,6.71
2022-12-28T04:46:03.443Z,6.70
2022-12-28T04:49:06.211Z,6.82
2022-12-28T04:52:10.148Z,6.82
2022-12-28T04:55:31.517Z,6.91
2022-12-28T04:58:36.086Z,7.01
2022-12-28T05:01:38.891Z,6.99
2022-12-28T05:04:41.624Z,7.05
2022-12-28T05:07:45.512Z,6.92
2022-12-28T05:10:48.041Z,7.10
2022-12-28T05:13:51.020Z,7.17
2022-12-28T05:16:53.791Z,7.06
2022-12-28T05:19:56.434Z,7.12
2022-12-28T05:23:00.319Z,7.18
2022-12-28T05:26:02.990Z,7.17
2022-12-28T05:29:05.750Z,7.20
2022-12-28T05:32:08.313Z,7.22
2022-12-28T05:35:10.988Z,7.11
2022-12-28T05:38:14.872Z,7.10
2022-12-28T05:41:18.886Z,7.29
2022-12-28T05:44:21.556Z,7.31
2022-12-28T05:47:26.550Z,7.28
2022-12-28T05:50:29.072Z,7.25
2022-12-28T05:53:33.413Z,7.32
2022-12-28T05:56:36.460Z,7.28
2022-12-28T05:59:38.999Z,7.34
2022-12-28T06:02:41.610Z,7.40
2022-12-28T06:05:44.233Z,7.44
2022-12-28T06:08:49.911Z,7.47
2022-12-28T06:11:52.643Z,7.61
2022-12-28T06:14:55.808Z,7.67
2022-12-28T06:17:58.732Z,7.79
2022-12-28T06:21:04.820Z,7.74
2022-12-28T06:24:10.369Z,7.70
2022-12-28T06:27:12.946Z,7.65
2022-12-28T06:30:15.526Z,7.59
2022-12-28T06:33:18.144Z,7.48
2022-12-28T06:36:22.460Z,7.47
2022-12-28T06:39:26.425Z,7.45
2022-12-28T06:42:29.117Z,7.41
2022-12-28T06:45:31.868Z,7.41
2022-12-28T06:48:35.553Z,7.31
2022-12-28T06:51:41.488Z,7.30
2022-12-28T06:54:45.375Z,7.29
2022-12-28T06:57:48.065Z,7.19
2022-12-28T07:00:50.919Z,7.25
2022-12-28T07:03:55.296Z,7.23
2022-12-28T07:06:58.183Z,7.16
2022-12-28T07:10:02.003Z,7.21
2022-12-28T07:13:05.802Z,7.31
2022-12-28T07:16:11.243Z,7.42
2022-12-28T07:19:14.233Z,7.40
2022-12-28T07:22:16.859Z,7.45
2022-12-28T07:25:20.958Z,7.52
2022-12-28T07:28:23.577Z,7.53
2022-12-28T07:31:27.784Z,7.52
2022-12-28T07:34:30.355Z,7.57
2022-12-28T07:37:33.048Z,7.59
2022-12-28T07:40:37.102Z,7.68
2022-12-28T07:43:40.208Z,7.73
2022-12-28T07:46:42.870Z,7.62
2022-12-28T07:49:45.563Z,7.49
2022-12-28T07:52:48.151Z,7.48
2022-12-28T07:55:57.977Z,7.60
2022-12-28T07:59:02.662Z,7.65
2022-12-28T08:02:05.362Z,7.70
2022-12-28T08:05:08.821Z,7.75
2022-12-28T08:08:11.378Z,7.75
2022-12-28T08:11:17.605Z,7.87
2022-12-28T08:14:20.407Z,7.95
2022-12-28T08:17:23.021Z,8.09
2022-12-28T08:20:25.948Z,8.12
2022-12-28T08:23:28.650Z,8.26
2022-12-28T08:26:33.798Z,8.31
2022-12-28T08:29:36.403Z,8.33
2022-12-28T08:32:38.998Z,8.47
2022-12-28T08:35:41.676Z,8.53
2022-12-28T08:38:45.528Z,8.56
2022-12-28T08:41:49.533Z,8.59
2022-12-28T08:44:52.098Z,8.59
2022-12-28T08:47:54.861Z,8.56
2022-12-28T08:51:02.456Z,8.70
2022-12-28T08:54:05.248Z,8.99
2022-12-28T08:57:09.175Z,9.10
2022-12-28T09:00:12.484Z,9.17
2022-12-28T09:03:15.103Z,9.20
2022-12-28T09:06:19.391Z,9.23
2022-12-28T09:09:22.044Z,9.09
2022-12-28T09:12:26.090Z,9.30
2022-12-28T09:15:28.675Z,9.24
2022-12-28T09:18:31.580Z,9.35
2022-12-28T09:21:37.234Z,9.56
2022-12-28T09:24:39.700Z,9.39
2022-12-28T09:27:43.637Z,9.56
2022-12-28T09:30:46.374Z,9.68
2022-12-28T09:37:26.845Z,9.55
2022-12-28T09:40:29.421Z,9.63
2022-12-28T09:43:33.496Z,9.54
2022-12-28T09:46:38.088Z,9.53
2022-12-28T09:49:44.261Z,9.62
2022-12-28T09:52:52.232Z,9.66
2022-12-28T09:55:59.590Z,9.83
2022-12-28T09:59:05.674Z,10.11
2022-12-28T10:02:17.784Z,10.13
2022-12-28T10:05:21.646Z,10.37
2022-12-28T10:08:24.898Z,10.53
2022-12-28T10:11:29.486Z,10.77
2022-12-28T10:14:37.574Z,10.90
2022-12-28T10:17:40.515Z,11.11
2022-12-28T10:20:44.343Z,11.43
2022-12-28T10:24:29.037Z,11.58
2022-12-28T10:27:14.258Z,11.69
2022-12-28T10:30:20.036Z,11.39
2022-12-28T10:33:23.011Z,11.80
2022-12-28T10:36:31.491Z,11.83
2022-12-28T10:39:40.209Z,11.97
2022-12-28T10:42:46.458Z,12.13
2022-12-28T10:45:51.328Z,12.12
2022-12-28T10:48:55.851Z,12.04
2022-12-28T10:52:07.259Z,12.39
2022-12-28T10:55:28.431Z,12.99
2022-12-28T10:58:33.767Z,12.99
2022-12-28T11:01:39.095Z,12.68
2022-12-28T11:04:54.490Z,13.10
2022-12-28T11:08:05.873Z,13.55
2022-12-28T11:11:10.973Z,12.97
2022-12-28T11:14:17.789Z,12.97
2022-12-28T11:17:24.583Z,12.18
2022-12-28T11:20:33.677Z,12.22
2022-12-28T11:23:36.247Z,12.33
2022-12-28T11:26:39.299Z,12.03
2022-12-28T11:29:43.732Z,11.90
2022-12-28T11:32:52.707Z,11.95
2022-12-28T11:35:59.796Z,11.29
2022-12-28T11:39:43.755Z,11.84
2022-12-28T11:42:56.882Z,12.10
2022-12-28T11:46:00.490Z,11.75
2022-12-28T11:49:03.579Z,11.87
2022-12-28T11:52:35.230Z,12.18
2022-12-28T11:55:48.660Z,12.18
2022-12-28T11:59:07.148Z,12.22
2022-12-28T12:02:45.259Z,12.84
2022-12-28T12:05:52.338Z,12.75
2022-12-28T12:08:55.048Z,12.28
2022-12-28T12:12:00.659Z,12.26
2022-12-28T12:15:07.499Z,12.54
2022-12-28T12:18:19.864Z,12.34
2022-12-28T12:21:30.051Z,12.25
2022-12-28T12:24:37.436Z,12.44
2022-12-28T12:27:42.873Z,12.76
2022-12-28T12:30:46.267Z,13.13
2022-12-28T12:33:50.208Z,13.24
2022-12-28T12:37:19.666Z,13.30
2022-12-28T12:40:51.468Z,13.74
2022-12-28T12:44:13.152Z,13.56
2022-12-28T12:47:40.788Z,13.12
2022-12-28T12:51:20.116Z,12.93
2022-12-28T12:54:31.210Z,12.85
2022-12-28T12:57:36.916Z,12.73
2022-12-28T13:00:48.645Z,13.05
2022-12-28T13:03:52.097Z,13.33
2022-12-28T13:06:57.681Z,13.09
2022-12-28T13:10:03.650Z,12.80
2022-12-28T13:13:06.586Z,12.92
2022-12-28T13:16:13.326Z,12.74
2022-12-28T13:19:20.742Z,12.21
2022-12-28T13:22:31.902Z,12.08
2022-12-28T13:25:35.229Z,12.10
2022-12-28T13:28:38.613Z,12.15
2022-12-28T13:31:49.529Z,12.10
2022-12-28T13:34:52.104Z,12.05
2022-12-28T13:38:03.616Z,11.90
2022-12-28T13:41:17.714Z,11.81
2022-12-28T13:44:30.931Z,11.69
2022-12-28T13:47:38.179Z,11.75
2022-12-28T13:50:41.679Z,11.68
2022-12-28T13:53:47.148Z,11.67
2022-12-28T13:56:49.737Z,11.67
2022-12-28T13:59:53.348Z,11.47
2022-12-28T14:02:57.407Z,11.54
2022-12-28T14:06:01.920Z,11.51
2022-12-28T14:09:05.982Z,11.39
2022-12-28T14:12:09.000Z,11.28
2022-12-28T14:15:13.399Z,11.15
2022-12-28T14:18:17.932Z,11.30
2022-12-28T14:21:33.110Z,11.23
2022-12-28T14:24:35.766Z,11.33
2022-12-28T14:27:40.818Z,11.25
2022-12-28T14:30:44.001Z,11.25
2022-12-28T14:33:52.791Z,11.24
2022-12-28T14:36:56.444Z,11.15
2022-12-28T14:40:02.266Z,11.16
2022-12-28T14:43:11.431Z,11.11
2022-12-28T14:46:18.432Z,10.99
2022-12-28T14:49:36.772Z,11.00
2022-12-28T14:52:44.738Z,11.05
2022-12-28T14:55:56.404Z,11.03
2022-12-28T14:59:00.788Z,10.99
2022-12-28T15:02:04.467Z,10.93
2022-12-28T15:05:35.702Z,10.87
2022-12-28T15:08:38.266Z,10.86
2022-12-28T15:11:40.805Z,10.72
2022-12-28T15:14:43.952Z,10.65
2022-12-28T15:17:47.241Z,10.59
2022-12-28T15:20:51.185Z,10.50
2022-12-28T15:23:55.245Z,10.43
2022-12-28T15:26:57.895Z,10.28
2022-12-28T15:30:09.824Z,10.23
2022-12-28T15:33:14.590Z,10.18
2022-12-28T15:36:20.293Z,10.13
2022-12-28T15:39:23.531Z,10.13
2022-12-28T15:42:26.156Z,10.03
2022-12-28T15:45:28.679Z,10.02
2022-12-28T15:48:31.425Z,9.95
2022-12-28T15:51:35.349Z,9.88
2022-12-28T15:54:40.349Z,9.77
2022-12-28T15:57:46.415Z,9.72
2022-12-28T16:00:49.184Z,9.68
2022-12-28T16:03:52.151Z,9.63
2022-12-28T16:06:56.116Z,9.56
2022-12-28T16:09:58.713Z,9.63
2022-12-28T16:13:01.994Z,9.62
2022-12-28T16:16:08.008Z,9.63
2022-12-28T16:19:12.324Z,9.60
2022-12-28T16:22:16.241Z,9.52
2022-12-28T16:25:18.831Z,9.44
2022-12-28T16:28:21.373Z,9.48
2022-12-28T16:31:25.604Z,9.61
2022-12-28T16:34:28.885Z,9.66
2022-12-28T16:37:32.819Z,9.61
2022-12-28T16:40:35.728Z,9.66
2022-12-28T16:43:38.349Z,9.73
2022-12-28T16:46:40.901Z,9.72
2022-12-28T16:49:43.938Z,9.78
2022-12-28T16:52:47.960Z,9.72
2022-12-28T16:55:50.490Z,9.68
2022-12-28T16:58:56.868Z,9.78
2022-12-28T17:02:00.160Z,9.80
2022-12-28T17:05:02.951Z,9.84
2022-12-28T17:08:08.233Z,9.82
2022-12-28T17:11:11.116Z,9.75
2022-12-28T17:14:17.368Z,9.71
2022-12-28T17:17:24.072Z,9.63
2022-12-28T17:20:27.599Z,9.61
2022-12-28T17:23:31.742Z,9.57
2022-12-28T17:26:35.115Z,9.57
2022-12-28T17:29:38.818Z,9.59
2022-12-28T17:32:42.468Z,9.59
2022-12-28T17:35:45.139Z,9.61
2022-12-28T17:38:49.552Z,9.57
2022-12-28T17:41:52.262Z,9.49
2022-12-28T17:44:54.898Z,9.43
2022-12-28T17:47:57.851Z,9.32
2022-12-28T17:51:00.444Z,9.37
2022-12-28T17:54:04.933Z,9.30
2022-12-28T17:57:07.585Z,9.27
2022-12-28T18:00:12.651Z,9.25
2022-12-28T18:03:26.044Z,9.22
2022-12-28T18:06:32.868Z,9.23
2022-12-28T18:09:37.085Z,9.19
2022-12-28T18:12:39.717Z,9.11
2022-12-28T18:15:43.994Z,9.04
2022-12-28T18:18:47.157Z,9.01
2022-12-28T18:21:50.446Z,8.91
2022-12-28T18:24:55.036Z,9.03
2022-12-28T18:27:58.106Z,9.01
2022-12-28T18:31:02.341Z,8.95
2022-12-28T18:34:05.284Z,8.99
2022-12-28T18:37:09.554Z,9.09
2022-12-28T18:40:13.900Z,9.01
2022-12-28T18:43:16.849Z,9.01
2022-12-28T18:46:19.510Z,9.08
2022-12-28T18:49:22.871Z,9.11
2022-12-28T18:52:26.340Z,9.10
2022-12-28T18:55:30.704Z,9.18
2022-12-28T18:58:35.186Z,9.23
2022-12-28T19:02:05.788Z,9.07
2022-12-28T19:05:02.536Z,9.15
2022-12-28T19:08:06.104Z,9.16
2022-12-28T19:11:11.235Z,9.10
2022-12-28T19:14:15.868Z,9.22
2022-12-28T19:17:18.646Z,9.18
2022-12-28T19:20:21.382Z,9.07
2022-12-28T19:23:24.329Z,8.97
2022-12-28T19:26:28.621Z,8.86
2022-12-28T19:29:32.295Z,8.70
2022-12-28T19:32:34.735Z,8.71
2022-12-28T19:35:37.434Z,8.59
2022-12-28T19:38:40.471Z,8.56
2022-12-28T19:41:44.595Z,8.61
2022-12-28T19:44:47.315Z,8.54
2022-12-28T19:47:50.032Z,8.50
2022-12-28T19:50:53.102Z,8.57
2022-12-28T19:53:56.123Z,8.74
2022-12-28T19:57:00.093Z,8.76
2022-12-28T20:00:02.737Z,8.63
2022-12-28T20:03:06.137Z,8.64
2022-12-28T20:06:10.339Z,8.60
2022-12-28T20:09:14.071Z,8.46
2022-12-28T20:12:19.279Z,8.40
2022-12-28T20:15:22.023Z,8.31
2022-12-28T20:18:24.940Z,8.28
2022-12-28T20:21:29.144Z,8.32
2022-12-28T20:24:31.810Z,8.23
2022-12-28T20:27:36.533Z,8.27
2022-12-28T20:30:39.520Z,8.14
2022-12-28T20:33:43.414Z,8.07
2022-12-28T20:36:46.080Z,8.06
2022-12-28T20:39:48.726Z,8.02
2022-12-28T20:43:11.426Z,8.03
2022-12-28T20:46:14.495Z,8.31
2022-12-28T20:49:17.259Z,8.32
2022-12-28T20:52:20.814Z,8.59
2022-12-28T20:55:24.363Z,8.88
2022-12-28T20:58:28.852Z,8.90
2022-12-28T21:01:31.561Z,9.21
2022-12-28T21:04:34.719Z,9.21
2022-12-28T21:07:38.124Z,9.34
2022-12-28T21:10:41.436Z,9.40
2022-12-28T21:13:45.882Z,9.37
2022-12-28T21:16:49.849Z,9.35
2022-12-28T21:19:52.747Z,9.44
2022-12-28T21:22:55.292Z,9.46
2022-12-28T21:26:02.057Z,9.50
2022-12-28T21:29:06.760Z,9.61
2022-12-28T21:32:09.649Z,9.53
2022-12-28T21:35:12.386Z,9.46
2022-12-28T21:38:15.120Z,9.52
2022-12-28T21:41:40.249Z,9.44
2022-12-28T21:44:44.439Z,9.49
2022-12-28T21:47:47.349Z,9.57
2022-12-28T21:50:50.021Z,9.63
2022-12-28T21:53:53.410Z,9.66
2022-12-28T21:56:56.856Z,9.71
2022-12-28T22:00:21.248Z,9.74
2022-12-28T22:03:41.696Z,9.81
2022-12-28T22:06:44.526Z,9.73
2022-12-28T22:10:04.500Z,9.67
2022-12-28T22:13:07.097Z,9.63
2022-12-28T22:16:11.432Z,9.60
2022-12-28T22:19:14.398Z,9.65
2022-12-28T22:22:17.171Z,9.73
2022-12-28T22:25:19.714Z,9.68
2022-12-28T22:28:22.305Z,9.71
2022-12-28T22:31:26.333Z,9.89
2022-12-28T22:34:28.996Z,9.97
2022-12-28T22:37:33.030Z,9.93
2022-12-28T22:40:36.356Z,9.92
2022-12-28T22:43:39.739Z,9.93
2022-12-28T22:46:43.667Z,9.97
2022-12-28T22:49:46.296Z,10.01
2022-12-28T22:52:48.905Z,10.12
2022-12-28T22:55:58.592Z,10.08
2022-12-28T22:59:04.739Z,9.97
2022-12-28T23:02:09.436Z,9.89
2022-12-28T23:05:12.146Z,9.92
2022-12-28T23:08:14.829Z,9.88
2022-12-28T23:11:35.792Z,9.93
2022-12-28T23:14:56.083Z,10.04
2022-12-28T23:18:20.220Z,10.04
2022-12-28T23:21:40.922Z,10.08
2022-12-28T23:25:01.382Z,10.05
2022-12-28T23:28:05.904Z,10.14
2022-12-28T23:31:08.655Z,10.33
2022-12-28T23:34:12.651Z,10.35
2022-12-28T23:37:15.286Z,10.52
2022-12-28T23:40:19.866Z,10.69
2022-12-28T23:43:22.481Z,10.85
2022-12-28T23:46:25.121Z,10.96
2022-12-28T23:49:29.123Z,11.00
2022-12-28T23:52:31.934Z,11.04
2022-12-28T23:55:34.477Z,11.14
2022-12-28T23:58:36.956Z,11.17
